Time;durP1;ratioP1;P1;durP2;ratioP2;P2;SDS_P1;SDS_P2;PMS_P1;PMS_P2;Temp;Humidity;BMP_temperature;BMP_pressure;BME280_temperature;BME280_humidity;BME280_pressure;Samples;Min_cycle;Max_cycle;Signal;HPM_P1;HPM_P2
2021/09/26 00:00:30;;;;;;;10.50;3.88;;;16.10;99.90;;;;;;4910147;29;20033;-74
2021/09/26 00:02:56;;;;;;;5.15;2.92;;;16.10;99.90;;;;;;4909806;29;20061;-74
2021/09/26 00:05:21;;;;;;;13.27;2.95;;;16.10;99.90;;;;;;4892870;29;20032;-73
2021/09/26 00:07:47;;;;;;;6.60;3.25;;;16.00;99.90;;;;;;4909533;29;20074;-74
2021/09/26 00:10:13;;;;;;;5.88;3.42;;;16.00;99.90;;;;;;4909264;29;20024;-74
2021/09/26 00:12:40;;;;;;;5.50;2.95;;;15.90;99.90;;;;;;4910054;29;20036;-73
2021/09/26 00:15:10;;;;;;;5.55;2.92;;;15.90;99.90;;;;;;4909586;29;20371;-74
2021/09/26 00:17:35;;;;;;;7.45;2.88;;;15.80;99.90;;;;;;4909710;29;20029;-74
2021/09/26 00:20:02;;;;;;;7.35;2.78;;;15.90;99.90;;;;;;4909635;29;20028;-74
2021/09/26 00:22:29;;;;;;;4.40;2.65;;;15.80;99.90;;;;;;4908836;29;20064;-75
2021/09/26 00:24:55;;;;;;;6.60;3.05;;;15.80;99.90;;;;;;4909592;29;20028;-74
2021/09/26 00:27:20;;;;;;;4.35;2.72;;;15.80;99.90;;;;;;4892632;29;20036;-74
2021/09/26 00:29:46;;;;;;;7.65;3.65;;;15.80;99.90;;;;;;4909120;29;20061;-73
2021/09/26 00:32:11;;;;;;;7.55;3.15;;;15.80;99.90;;;;;;4909131;29;20032;-73
2021/09/26 00:34:37;;;;;;;6.30;3.15;;;15.90;99.90;;;;;;4892580;29;20047;-73
2021/09/26 00:37:04;;;;;;;8.77;4.07;;;15.90;99.90;;;;;;4909070;29;20028;-73
2021/09/26 00:39:30;;;;;;;10.13;4.22;;;15.90;99.90;;;;;;4909525;29;20029;-74
2021/09/26 00:41:57;;;;;;;10.65;3.60;;;15.90;99.90;;;;;;4909005;29;20469;-75
2021/09/26 00:44:23;;;;;;;7.20;3.38;;;15.90;99.90;;;;;;4909396;29;20071;-73
2021/09/26 00:46:49;;;;;;;7.45;4.05;;;15.90;99.90;;;;;;4909327;29;20057;-73
2021/09/26 00:49:15;;;;;;;5.65;3.83;;;16.00;99.90;;;;;;4892239;29;20037;-73
2021/09/26 00:51:42;;;;;;;8.50;4.13;;;15.90;99.90;;;;;;4909000;29;20513;-73
2021/09/26 00:54:09;;;;;;;12.20;4.03;;;16.00;99.90;;;;;;4892075;29;20409;-74
2021/09/26 00:56:35;;;;;;;8.27;3.78;;;16.00;99.90;;;;;;4908888;29;20029;-73
2021/09/26 00:59:00;;;;;;;7.82;3.92;;;16.10;99.90;;;;;;4908976;29;20057;-74
2021/09/26 01:01:26;;;;;;;8.38;4.60;;;16.00;99.90;;;;;;4892263;29;20032;-74
2021/09/26 01:03:52;;;;;;;10.32;4.63;;;16.10;99.90;;;;;;4908882;29;20028;-74
2021/09/26 01:06:29;;;;;;;9.00;4.40;;;16.10;99.90;;;;;;4908944;29;20044;-74
2021/09/26 01:09:33;;;;;;;7.32;4.10;;;16.10;99.90;;;;;;4909276;29;20035;-74
2021/09/26 01:12:04;;;;;;;7.22;4.35;;;16.10;99.90;;;;;;4908967;29;20037;-75
2021/09/26 01:14:38;;;;;;;9.02;4.82;;;16.10;99.90;;;;;;4908765;29;20049;-75
2021/09/26 01:17:19;;;;;;;11.18;5.03;;;16.10;99.90;;;;;;4908867;29;20037;-74
2021/09/26 01:20:02;;;;;;;16.88;5.45;;;16.10;99.90;;;;;;4892025;29;20119;-74
2021/09/26 01:23:07;;;;;;;15.80;5.82;;;16.20;99.90;;;;;;4908475;29;20063;-75
2021/09/26 01:25:48;;;;;;;11.30;4.72;;;16.10;99.90;;;;;;4906856;29;20045;-75
2021/09/26 01:28:35;;;;;;;10.63;5.15;;;16.20;99.90;;;;;;4909004;29;20040;-74
2021/09/26 01:31:12;;;;;;;10.20;5.05;;;16.20;99.90;;;;;;4908857;29;20025;-74
2021/09/26 01:34:12;;;;;;;13.45;5.43;;;16.10;99.90;;;;;;4907976;29;20052;-75
2021/09/26 01:37:15;;;;;;;12.13;5.32;;;16.20;99.90;;;;;;4909041;29;20028;-74
2021/09/26 01:39:52;;;;;;;14.60;4.75;;;16.20;99.90;;;;;;4908171;29;20025;-74
2021/09/26 01:42:35;;;;;;;10.48;5.30;;;16.10;99.90;;;;;;4908936;29;20035;-74
2021/09/26 01:45:09;;;;;;;8.80;5.28;;;16.20;99.90;;;;;;4908767;29;20025;-75
2021/09/26 01:47:42;;;;;;;13.40;4.70;;;16.10;99.90;;;;;;4891853;29;20046;-75
2021/09/26 01:50:14;;;;;;;8.82;5.35;;;16.10;99.90;;;;;;4912232;29;20036;-74
2021/09/26 01:52:44;;;;;;;6.60;4.18;;;16.20;99.90;;;;;;4911957;29;20121;-74
2021/09/26 01:55:10;;;;;;;15.35;6.05;;;16.20;99.90;;;;;;4895475;29;20028;-74
2021/09/26 01:57:40;;;;;;;15.20;5.47;;;16.10;99.90;;;;;;4895272;29;20024;-75
2021/09/26 02:00:08;;;;;;;10.75;5.90;;;16.10;99.90;;;;;;4911632;29;20131;-74
2021/09/26 02:02:35;;;;;;;18.27;5.57;;;16.10;99.90;;;;;;4911278;29;20065;-75
2021/09/26 02:05:03;;;;;;;18.65;6.05;;;16.10;99.90;;;;;;4894774;29;20040;-74
2021/09/26 02:07:38;;;;;;;23.42;5.35;;;16.10;99.90;;;;;;4911627;29;20044;-74
2021/09/26 02:10:05;;;;;;;15.52;5.80;;;16.10;99.90;;;;;;4911884;29;20033;-74
2021/09/26 02:12:32;;;;;;;18.95;6.47;;;16.10;99.90;;;;;;4893837;29;20024;-75
2021/09/26 02:14:59;;;;;;;11.85;5.97;;;16.10;99.90;;;;;;4894414;29;20044;-75
2021/09/26 02:17:29;;;;;;;10.25;5.88;;;16.20;99.90;;;;;;4912016;29;20029;-74
2021/09/26 02:20:02;;;;;;;13.85;5.97;;;16.10;99.90;;;;;;4911801;29;20458;-74
2021/09/26 02:22:32;;;;;;;14.10;5.85;;;16.10;99.90;;;;;;4911645;29;20052;-74
2021/09/26 02:25:05;;;;;;;9.95;5.43;;;16.10;99.90;;;;;;4895056;29;20121;-76
2021/09/26 02:27:32;;;;;;;13.10;5.25;;;16.10;99.90;;;;;;4911521;29;20079;-75
2021/09/26 02:29:58;;;;;;;12.48;5.72;;;16.10;99.90;;;;;;4912047;29;20151;-74
2021/09/26 02:32:24;;;;;;;20.42;5.78;;;16.00;99.90;;;;;;4911587;29;20116;-74
2021/09/26 02:34:50;;;;;;;20.85;6.57;;;16.10;99.90;;;;;;4911667;29;20040;-74
2021/09/26 02:37:16;;;;;;;10.98;5.72;;;16.10;99.90;;;;;;4911730;29;20027;-75
2021/09/26 02:39:43;;;;;;;15.40;5.70;;;16.10;99.90;;;;;;4910997;29;20033;-74
2021/09/26 02:42:27;;;;;;;9.27;5.78;;;16.10;99.90;;;;;;4911410;29;20024;-75
2021/09/26 02:45:09;;;;;;;13.60;5.45;;;16.10;99.90;;;;;;4911607;29;20047;-74
2021/09/26 02:47:51;;;;;;;11.23;5.82;;;16.10;99.90;;;;;;4911105;29;20529;-75
2021/09/26 02:50:18;;;;;;;9.80;5.45;;;16.10;99.90;;;;;;4911432;29;20053;-75
2021/09/26 02:52:45;;;;;;;13.00;6.10;;;16.10;99.90;;;;;;4910870;29;20056;-74
2021/09/26 02:55:12;;;;;;;21.10;5.93;;;16.10;99.90;;;;;;4911298;29;20028;-74
2021/09/26 02:57:38;;;;;;;15.80;6.18;;;16.10;99.90;;;;;;4911460;29;20024;-75
2021/09/26 03:00:06;;;;;;;16.20;6.07;;;16.10;99.90;;;;;;4909642;29;20056;-74
2021/09/26 03:02:34;;;;;;;19.52;5.97;;;16.10;99.90;;;;;;4911040;29;20056;-73
2021/09/26 03:05:01;;;;;;;9.90;5.32;;;16.00;99.90;;;;;;4894392;29;20114;-74
2021/09/26 03:07:27;;;;;;;14.52;6.72;;;16.10;99.90;;;;;;4910111;29;20084;-74
2021/09/26 03:09:53;;;;;;;11.45;6.40;;;16.10;99.90;;;;;;4894021;29;20037;-74
2021/09/26 03:12:21;;;;;;;14.85;6.55;;;16.10;99.90;;;;;;4910871;29;20454;-73
2021/09/26 03:14:47;;;;;;;14.70;6.43;;;16.10;99.90;;;;;;4910651;29;20040;-73
2021/09/26 03:17:13;;;;;;;10.32;5.68;;;16.10;99.90;;;;;;4910869;29;20037;-73
2021/09/26 03:19:39;;;;;;;13.27;5.93;;;16.10;99.90;;;;;;4893842;29;20040;-73
2021/09/26 03:22:06;;;;;;;13.15;6.38;;;16.10;99.90;;;;;;4909982;29;20052;-73
2021/09/26 03:24:33;;;;;;;11.32;5.93;;;16.10;99.90;;;;;;4894143;29;20098;-75
2021/09/26 03:27:08;;;;;;;15.45;5.90;;;16.10;99.90;;;;;;4893996;29;20037;-74
2021/09/26 03:29:38;;;;;;;10.80;5.85;;;16.10;99.90;;;;;;4910508;29;20036;-74
2021/09/26 03:32:04;;;;;;;15.07;7.05;;;16.10;99.90;;;;;;4910627;29;20029;-74
2021/09/26 03:34:29;;;;;;;10.95;5.82;;;16.10;99.90;;;;;;4910620;29;20025;-74
2021/09/26 03:36:55;;;;;;;15.68;6.88;;;16.10;99.90;;;;;;4910175;29;20478;-75
2021/09/26 03:39:21;;;;;;;11.10;6.25;;;16.10;99.90;;;;;;4909837;29;20032;-74
2021/09/26 03:41:47;;;;;;;12.10;6.32;;;16.10;99.90;;;;;;4909781;29;20087;-74
2021/09/26 03:44:12;;;;;;;15.30;6.78;;;16.10;99.90;;;;;;4910072;29;20083;-74
2021/09/26 03:46:38;;;;;;;11.70;6.00;;;16.00;99.90;;;;;;4893061;29;20040;-74
2021/09/26 03:49:04;;;;;;;24.40;7.47;;;16.10;99.90;;;;;;4910092;29;20040;-74
2021/09/26 03:51:30;;;;;;;12.15;6.35;;;16.10;99.90;;;;;;4892694;29;20025;-74
2021/09/26 03:53:55;;;;;;;17.70;7.45;;;16.10;99.90;;;;;;4893436;29;20028;-74
2021/09/26 03:56:21;;;;;;;11.15;6.15;;;16.10;99.90;;;;;;4909616;29;20036;-74
2021/09/26 03:58:47;;;;;;;10.93;6.05;;;16.10;99.90;;;;;;4909901;29;20025;-74
2021/09/26 04:01:12;;;;;;;12.23;6.72;;;16.10;99.90;;;;;;4910020;29;20032;-74
2021/09/26 04:03:38;;;;;;;16.27;7.40;;;16.10;99.90;;;;;;4909546;29;20070;-73
2021/09/26 04:06:09;;;;;;;13.20;6.72;;;16.10;99.90;;;;;;4909730;29;20045;-74
2021/09/26 04:08:36;;;;;;;15.48;6.75;;;16.10;99.90;;;;;;4909686;29;20032;-75
2021/09/26 04:11:02;;;;;;;14.05;7.13;;;16.10;99.90;;;;;;4892451;29;20047;-74
2021/09/26 04:13:28;;;;;;;15.55;7.80;;;16.20;99.90;;;;;;4910184;29;20035;-75
2021/09/26 04:15:53;;;;;;;13.63;6.68;;;16.10;99.90;;;;;;4909553;29;20064;-74
2021/09/26 04:18:19;;;;;;;12.30;6.35;;;16.20;99.90;;;;;;4909434;29;20100;-75
2021/09/26 04:20:44;;;;;;;14.80;7.75;;;16.10;99.90;;;;;;4892728;29;20028;-76
2021/09/26 04:23:10;;;;;;;16.13;7.10;;;16.10;99.90;;;;;;4909205;29;20080;-75
2021/09/26 04:25:35;;;;;;;12.60;6.15;;;16.10;99.90;;;;;;4908978;29;20032;-75
2021/09/26 04:28:01;;;;;;;12.27;6.68;;;16.10;99.90;;;;;;4909747;29;20102;-74
2021/09/26 04:30:27;;;;;;;13.02;6.32;;;16.10;99.90;;;;;;4892832;29;20123;-74
2021/09/26 04:32:53;;;;;;;18.00;7.43;;;16.10;99.90;;;;;;4909250;29;20044;-75
2021/09/26 04:35:19;;;;;;;12.50;6.53;;;16.10;99.90;;;;;;4909720;29;20024;-74
2021/09/26 04:37:45;;;;;;;14.60;7.45;;;16.20;99.90;;;;;;4908823;29;20084;-74
2021/09/26 04:40:11;;;;;;;11.35;6.68;;;16.10;99.90;;;;;;4908894;29;20040;-76
2021/09/26 04:42:37;;;;;;;12.20;6.85;;;16.10;99.90;;;;;;4909526;29;20036;-75
2021/09/26 04:45:03;;;;;;;11.85;6.03;;;16.10;99.90;;;;;;4909129;29;20029;-75
2021/09/26 04:47:29;;;;;;;10.10;6.28;;;16.10;99.90;;;;;;4908843;29;20052;-75
2021/09/26 04:49:55;;;;;;;12.70;6.78;;;16.10;99.90;;;;;;4908226;29;20096;-75
2021/09/26 04:52:21;;;;;;;13.27;6.68;;;16.10;99.90;;;;;;4906977;29;20063;-74
2021/09/26 04:54:46;;;;;;;12.27;5.90;;;16.10;99.90;;;;;;4909152;29;20036;-75
2021/09/26 04:57:13;;;;;;;11.77;6.55;;;16.00;99.90;;;;;;4909383;29;20059;-74
2021/09/26 04:59:38;;;;;;;15.10;6.38;;;16.00;99.90;;;;;;4890306;29;20036;-74
2021/09/26 05:02:04;;;;;;;11.52;6.95;;;16.00;99.90;;;;;;4908676;29;20041;-75
2021/09/26 05:04:30;;;;;;;13.68;6.88;;;16.00;99.90;;;;;;4908974;29;20036;-74
2021/09/26 05:07:04;;;;;;;15.35;5.82;;;15.90;99.90;;;;;;4891288;29;20063;-76
2021/09/26 05:09:30;;;;;;;16.67;7.18;;;15.90;99.90;;;;;;4907641;29;20033;-75
2021/09/26 05:11:58;;;;;;;12.98;5.97;;;15.80;99.90;;;;;;4891733;29;20379;-75
2021/09/26 05:14:24;;;;;;;13.77;7.47;;;15.80;99.90;;;;;;4908908;29;20115;-74
2021/09/26 05:16:49;;;;;;;12.70;5.95;;;15.70;99.90;;;;;;4908982;29;20025;-74
2021/09/26 05:19:15;;;;;;;15.18;6.75;;;15.80;99.90;;;;;;4908901;29;20059;-75
2021/09/26 05:21:41;;;;;;;11.98;5.90;;;15.70;99.90;;;;;;4908718;29;20036;-74
2021/09/26 05:24:10;;;;;;;10.93;5.75;;;15.60;99.90;;;;;;4910997;29;20057;-75
2021/09/26 05:26:36;;;;;;;16.52;8.40;;;15.60;99.90;;;;;;4912613;29;20165;-75
2021/09/26 05:29:03;;;;;;;16.50;6.00;;;15.60;99.90;;;;;;4895622;29;20426;-75
2021/09/26 05:31:29;;;;;;;31.67;7.68;;;15.50;99.90;;;;;;4912996;29;20060;-75
2021/09/26 05:33:56;;;;;;;11.85;6.00;;;15.50;99.90;;;;;;4912406;29;20029;-75
2021/09/26 05:36:21;;;;;;;11.90;6.95;;;15.60;99.90;;;;;;4912618;29;20032;-74
2021/09/26 05:38:47;;;;;;;11.82;5.85;;;15.50;99.90;;;;;;4912443;29;20088;-74
2021/09/26 05:41:12;;;;;;;17.50;6.13;;;15.60;99.90;;;;;;4912009;29;20044;-74
2021/09/26 05:43:38;;;;;;;17.58;6.18;;;15.50;99.90;;;;;;4912386;29;20032;-74
2021/09/26 05:46:04;;;;;;;15.88;6.60;;;15.50;99.90;;;;;;4911516;29;20052;-75
2021/09/26 05:48:29;;;;;;;13.55;6.85;;;15.50;99.90;;;;;;4912054;29;20048;-75
2021/09/26 05:50:55;;;;;;;15.68;6.75;;;15.40;99.90;;;;;;4895805;29;20032;-75
2021/09/26 05:53:21;;;;;;;14.60;6.45;;;15.50;99.90;;;;;;4904518;29;20033;-74
2021/09/26 05:55:47;;;;;;;13.30;6.13;;;15.40;99.90;;;;;;4881943;29;20410;-74
2021/09/26 05:58:13;;;;;;;20.67;6.70;;;15.40;99.90;;;;;;4904209;29;20052;-74
2021/09/26 06:00:39;;;;;;;13.40;6.55;;;15.50;99.90;;;;;;4893062;29;20029;-75
2021/09/26 06:03:04;;;;;;;11.50;5.90;;;15.40;99.90;;;;;;4896114;29;20037;-75
2021/09/26 06:05:30;;;;;;;11.05;6.03;;;15.40;99.90;;;;;;4900691;29;20041;-76
2021/09/26 06:07:56;;;;;;;9.98;5.97;;;15.40;99.90;;;;;;4903334;29;20033;-76
2021/09/26 06:10:22;;;;;;;16.27;6.05;;;15.40;99.90;;;;;;4898603;29;20036;-74
2021/09/26 06:12:47;;;;;;;14.98;6.75;;;15.50;99.90;;;;;;4908108;29;20025;-75
2021/09/26 06:15:14;;;;;;;13.63;5.43;;;15.40;99.90;;;;;;4894855;29;20028;-75
2021/09/26 06:17:40;;;;;;;15.95;6.55;;;15.50;99.90;;;;;;4910375;29;20057;-75
2021/09/26 06:20:06;;;;;;;14.45;7.05;;;15.40;99.90;;;;;;4901612;29;20033;-74
2021/09/26 06:22:32;;;;;;;10.80;5.80;;;15.50;99.90;;;;;;4900155;29;20049;-76
2021/09/26 06:25:01;;;;;;;11.30;6.38;;;15.50;99.90;;;;;;4902011;29;20045;-75
2021/09/26 06:27:27;;;;;;;11.73;6.45;;;15.50;99.90;;;;;;4899568;29;20044;-75
2021/09/26 06:29:52;;;;;;;11.57;6.05;;;15.50;99.90;;;;;;4886790;29;20079;-74
2021/09/26 06:32:18;;;;;;;12.70;6.07;;;15.60;99.90;;;;;;4901094;29;20132;-74
2021/09/26 06:34:44;;;;;;;15.30;7.05;;;15.50;99.90;;;;;;4892574;29;20495;-74
2021/09/26 06:37:09;;;;;;;19.30;5.85;;;15.50;99.90;;;;;;4884680;29;20067;-75
2021/09/26 06:39:36;;;;;;;9.85;5.85;;;15.60;99.90;;;;;;4901965;29;20080;-74
2021/09/26 06:42:02;;;;;;;12.68;5.43;;;15.70;99.90;;;;;;4881988;29;20033;-74
2021/09/26 06:44:28;;;;;;;12.68;5.85;;;15.70;99.90;;;;;;4902363;29;20040;-77
2021/09/26 06:46:55;;;;;;;9.48;4.80;;;15.60;99.90;;;;;;4906224;29;20413;-74
2021/09/26 06:49:20;;;;;;;10.45;5.68;;;15.80;99.90;;;;;;4904398;29;20029;-75
2021/09/26 06:51:46;;;;;;;13.18;5.53;;;15.80;99.90;;;;;;4880460;29;20041;-75
2021/09/26 06:54:11;;;;;;;11.77;4.50;;;15.80;99.90;;;;;;4900390;29;20033;-76
2021/09/26 06:56:38;;;;;;;8.18;4.20;;;15.90;99.90;;;;;;4887711;29;20039;-77
2021/09/26 06:59:03;;;;;;;9.57;4.88;;;16.00;99.90;;;;;;4883297;29;20033;-76
2021/09/26 07:01:32;;;;;;;8.68;4.50;;;16.10;99.90;;;;;;4885487;29;20048;-76
2021/09/26 07:03:58;;;;;;;9.50;4.93;;;16.10;99.90;;;;;;4892687;29;20099;-77
2021/09/26 07:06:24;;;;;;;6.93;3.65;;;16.30;99.90;;;;;;4892607;29;20045;-76
2021/09/26 07:08:50;;;;;;;11.40;4.75;;;16.40;99.90;;;;;;4892383;29;20035;-76
2021/09/26 07:11:15;;;;;;;7.88;4.55;;;16.40;99.90;;;;;;4875147;29;20040;-75
2021/09/26 07:13:41;;;;;;;16.95;4.72;;;16.40;99.90;;;;;;4892276;29;20054;-75
2021/09/26 07:16:06;;;;;;;10.02;4.60;;;16.50;99.90;;;;;;4892241;29;20036;-77
2021/09/26 07:18:32;;;;;;;9.68;4.30;;;16.60;99.90;;;;;;4891952;29;20029;-78
2021/09/26 07:20:58;;;;;;;9.90;4.63;;;16.50;99.90;;;;;;4903746;29;20040;-76
2021/09/26 07:23:23;;;;;;;11.43;4.45;;;16.80;99.90;;;;;;4890714;29;20045;-76
2021/09/26 07:25:49;;;;;;;7.82;4.32;;;16.80;99.90;;;;;;4893447;29;20041;-76
2021/09/26 07:28:14;;;;;;;8.57;4.25;;;16.80;99.90;;;;;;4910121;29;20062;-75
2021/09/26 07:30:41;;;;;;;8.48;4.15;;;17.00;99.90;;;;;;4910414;29;20032;-77
2021/09/26 07:33:07;;;;;;;10.05;4.25;;;17.10;99.90;;;;;;4910299;29;20024;-75
2021/09/26 07:35:33;;;;;;;7.22;4.15;;;17.10;99.90;;;;;;4893816;29;20096;-76
2021/09/26 07:37:58;;;;;;;6.82;3.67;;;17.20;99.90;;;;;;4910543;29;20081;-75
2021/09/26 07:40:25;;;;;;;5.80;3.35;;;17.40;99.90;;;;;;4888936;29;20082;-74
2021/09/26 07:42:50;;;;;;;5.93;3.60;;;17.50;99.90;;;;;;4900077;29;20061;-76
2021/09/26 07:45:16;;;;;;;5.45;2.85;;;17.90;99.90;;;;;;4873991;29;20036;-76
2021/09/26 07:47:42;;;;;;;5.57;3.55;;;18.10;99.90;;;;;;4873911;29;20025;-77
2021/09/26 07:50:09;;;;;;;7.90;3.65;;;18.30;99.90;;;;;;4874520;29;20033;-76
2021/09/26 07:52:35;;;;;;;10.18;3.83;;;18.40;99.90;;;;;;4896520;29;20033;-75
2021/09/26 07:55:01;;;;;;;5.00;2.92;;;18.50;99.90;;;;;;4909622;29;20092;-76
2021/09/26 07:57:27;;;;;;;12.93;3.95;;;18.60;99.90;;;;;;4909615;29;20037;-76
2021/09/26 07:59:53;;;;;;;7.05;3.40;;;18.90;99.90;;;;;;4907698;29;20081;-76
2021/09/26 08:02:18;;;;;;;4.60;2.70;;;19.10;99.90;;;;;;4883201;29;20029;-75
2021/09/26 08:04:44;;;;;;;4.63;2.92;;;19.20;99.90;;;;;;4891092;29;20512;-75
2021/09/26 08:07:10;;;;;;;5.57;2.72;;;19.40;99.90;;;;;;4874081;29;20045;-75
2021/09/26 08:09:43;;;;;;;5.35;2.65;;;19.50;99.90;;;;;;4891055;29;20029;-80
2021/09/26 08:12:10;;;;;;;5.40;2.83;;;19.60;99.90;;;;;;4873813;29;20033;-77
2021/09/26 08:14:35;;;;;;;4.78;2.75;;;19.70;99.90;;;;;;4890877;29;20054;-73
2021/09/26 08:17:01;;;;;;;6.15;2.80;;;19.60;99.90;;;;;;4891518;29;20037;-78
2021/09/26 08:19:29;;;;;;;7.85;2.78;;;19.60;99.90;;;;;;4898253;29;20025;-77
2021/09/26 08:21:56;;;;;;;8.88;3.05;;;19.50;99.90;;;;;;4891339;29;20124;-73
2021/09/26 08:24:22;;;;;;;5.78;2.55;;;19.50;99.90;;;;;;4883586;29;20057;-77
2021/09/26 08:26:47;;;;;;;3.42;2.22;;;19.50;99.90;;;;;;4883465;29;20049;-77
2021/09/26 08:29:13;;;;;;;4.82;3.15;;;19.50;99.90;;;;;;4903993;29;20034;-77
2021/09/26 08:31:43;;;;;;;5.90;3.03;;;19.40;99.90;;;;;;4892424;29;20060;-78
2021/09/26 08:34:09;;;;;;;5.18;2.80;;;19.50;99.90;;;;;;4906029;29;20107;-76
2021/09/26 08:36:34;;;;;;;4.80;2.17;;;19.60;99.90;;;;;;4896609;29;20491;-77
2021/09/26 08:39:00;;;;;;;5.60;2.63;;;19.60;99.90;;;;;;4883536;29;20466;-78
2021/09/26 08:41:31;;;;;;;4.55;2.78;;;19.60;99.90;;;;;;4874713;29;20112;-79
2021/09/26 08:44:01;;;;;;;4.15;2.45;;;19.70;99.90;;;;;;4881350;29;20033;-78
2021/09/26 08:46:28;;;;;;;4.40;2.72;;;19.70;99.90;;;;;;4902945;29;20103;-76
2021/09/26 08:48:57;;;;;;;11.38;2.78;;;19.80;99.90;;;;;;4903583;29;20074;-79
2021/09/26 08:51:23;;;;;;;5.47;2.85;;;19.70;99.90;;;;;;4878881;29;20028;-77
2021/09/26 08:53:54;;;;;;;3.33;2.28;;;19.80;99.90;;;;;;4879498;29;20039;-76
2021/09/26 08:56:23;;;;;;;5.32;3.03;;;19.80;99.90;;;;;;4897811;29;20117;-75
2021/09/26 08:58:49;;;;;;;4.68;2.95;;;20.00;99.90;;;;;;4892528;29;20029;-78
2021/09/26 09:01:16;;;;;;;5.28;3.33;;;19.90;99.90;;;;;;4879575;29;20037;-77
2021/09/26 09:03:46;;;;;;;4.15;2.35;;;20.00;99.90;;;;;;4892103;29;20425;-78
2021/09/26 09:06:12;;;;;;;5.93;2.30;;;20.00;99.90;;;;;;4901272;29;20127;-75
2021/09/26 09:08:41;;;;;;;8.90;3.45;;;20.00;99.90;;;;;;4888386;29;20077;-79
2021/09/26 09:11:09;;;;;;;6.82;3.00;;;20.00;99.90;;;;;;4905661;29;20037;-78
2021/09/26 09:13:37;;;;;;;7.75;3.08;;;20.00;99.90;;;;;;4903001;29;20240;-78
2021/09/26 09:16:04;;;;;;;5.20;2.92;;;20.10;99.90;;;;;;4902379;29;20033;-77
2021/09/26 09:18:50;;;;;;;13.45;3.33;;;20.20;99.90;;;;;;4899744;29;20037;-79
2021/09/26 09:21:28;;;;;;;5.85;2.90;;;20.30;99.90;;;;;;4900659;29;20036;-75
2021/09/26 09:24:17;;;;;;;3.72;2.00;;;20.40;99.90;;;;;;4898992;29;20490;-77
2021/09/26 09:26:45;;;;;;;6.10;2.53;;;20.60;99.90;;;;;;4892091;29;20060;-77
2021/09/26 09:29:11;;;;;;;4.65;2.83;;;20.70;99.90;;;;;;4907711;29;20140;-77
2021/09/26 09:31:48;;;;;;;6.60;2.75;;;20.80;99.90;;;;;;4899935;29;20044;-77
2021/09/26 09:34:32;;;;;;;4.43;2.08;;;20.80;99.90;;;;;;4892987;29;20032;-75
2021/09/26 09:37:16;;;;;;;9.88;2.40;;;20.80;99.90;;;;;;4879225;29;20060;-78
2021/09/26 09:40:03;;;;;;;3.80;2.13;;;20.80;99.90;;;;;;4900181;29;20036;-77
2021/09/26 09:42:36;;;;;;;4.72;1.90;;;20.80;99.90;;;;;;4875330;29;20483;-77
2021/09/26 09:45:18;;;;;;;4.10;2.50;;;20.90;99.90;;;;;;4888589;29;20037;-78
2021/09/26 09:47:56;;;;;;;4.13;2.40;;;21.00;99.90;;;;;;4893406;29;20524;-73
2021/09/26 09:50:39;;;;;;;4.88;2.90;;;21.10;99.90;;;;;;4908104;29;20036;-78
2021/09/26 09:53:06;;;;;;;4.95;2.55;;;21.20;99.90;;;;;;4872593;29;20057;-77
2021/09/26 09:55:32;;;;;;;9.43;2.97;;;21.10;99.90;;;;;;4884243;29;20056;-80
2021/09/26 09:58:16;;;;;;;3.75;2.45;;;21.20;99.90;;;;;;4900199;29;20049;-77
2021/09/26 10:00:57;;;;;;;3.13;2.30;;;21.20;99.90;;;;;;4886796;29;20036;-75
2021/09/26 10:03:33;;;;;;;5.65;2.35;;;21.20;99.90;;;;;;4881485;29;20032;-76
2021/09/26 10:06:02;;;;;;;4.70;2.40;;;21.30;99.90;;;;;;4876233;29;20074;-79
2021/09/26 10:08:34;;;;;;;4.00;2.28;;;21.30;99.90;;;;;;4884507;29;20040;-76
2021/09/26 10:11:07;;;;;;;5.88;2.90;;;21.20;99.90;;;;;;4878250;29;20033;-78
2021/09/26 10:13:36;;;;;;;6.47;2.47;;;21.10;99.90;;;;;;4890028;29;20049;-77
2021/09/26 10:16:07;;;;;;;4.93;2.22;;;21.00;99.90;;;;;;4891592;29;20033;-78
2021/09/26 10:18:34;;;;;;;4.22;2.13;;;20.90;99.90;;;;;;4905379;29;20045;-74
2021/09/26 10:21:00;;;;;;;5.55;2.70;;;20.90;99.90;;;;;;4911363;29;20037;-74
2021/09/26 10:23:27;;;;;;;5.43;2.22;;;20.90;99.90;;;;;;4900184;29;20067;-78
2021/09/26 10:25:57;;;;;;;10.23;2.72;;;20.70;99.90;;;;;;4893394;29;20126;-75
2021/09/26 10:28:27;;;;;;;3.88;2.28;;;20.80;99.90;;;;;;4892630;29;20055;-74
2021/09/26 10:30:55;;;;;;;3.35;2.17;;;20.80;99.90;;;;;;4911799;29;20024;-76
2021/09/26 10:33:22;;;;;;;8.40;2.17;;;20.70;99.90;;;;;;4910183;29;20031;-75
2021/09/26 10:35:48;;;;;;;4.68;2.28;;;20.70;99.90;;;;;;4877340;29;20088;-77
2021/09/26 10:38:15;;;;;;;6.57;2.65;;;20.70;99.90;;;;;;4884385;29;20028;-74
2021/09/26 10:40:40;;;;;;;6.53;2.67;;;20.80;99.90;;;;;;4911679;29;20063;-75
2021/09/26 10:43:36;;;;;;;3.90;2.45;;;20.80;99.90;;;;;;4911171;29;20032;-76
2021/09/26 10:46:23;;;;;;;5.25;2.15;;;20.90;99.90;;;;;;4910940;29;20059;-75
2021/09/26 10:49:06;;;;;;;5.07;2.67;;;21.20;99.90;;;;;;4894096;29;20656;-76
2021/09/26 10:51:58;;;;;;;7.95;2.58;;;21.60;99.90;;;;;;4901025;29;20033;-76
2021/09/26 10:54:35;;;;;;;5.28;2.30;;;22.00;99.90;;;;;;4888561;29;20428;-77
2021/09/26 10:57:04;;;;;;;5.22;2.50;;;22.30;99.90;;;;;;4911047;29;20491;-77
2021/09/26 10:59:44;;;;;;;5.80;2.78;;;22.30;99.90;;;;;;4876027;29;20043;-79
2021/09/26 11:02:26;;;;;;;7.20;2.17;;;22.20;99.90;;;;;;4890399;29;20060;-78
2021/09/26 11:04:56;;;;;;;4.72;2.92;;;22.00;99.90;;;;;;4890024;29;20029;-77
2021/09/26 11:07:27;;;;;;;4.03;2.08;;;21.90;99.90;;;;;;4891233;29;20045;-76
2021/09/26 11:10:02;;;;;;;5.43;2.85;;;21.80;99.90;;;;;;4892533;29;20570;-75
2021/09/26 11:12:37;;;;;;;10.80;2.33;;;21.70;99.90;;;;;;4897280;29;20068;-75
2021/09/26 11:15:13;;;;;;;5.95;2.60;;;21.70;99.90;;;;;;4888428;29;20088;-77
2021/09/26 11:17:48;;;;;;;5.85;2.70;;;21.80;99.90;;;;;;4907701;29;20084;-73
2021/09/26 11:20:26;;;;;;;5.35;2.85;;;22.10;99.90;;;;;;4894347;29;20108;-76
2021/09/26 11:23:04;;;;;;;6.47;2.65;;;22.20;99.90;;;;;;4899823;29;20048;-75
2021/09/26 11:26:00;;;;;;;4.22;2.75;;;22.20;99.90;;;;;;4896076;29;20101;-75
2021/09/26 11:28:37;;;;;;;5.60;2.60;;;22.30;99.90;;;;;;4892125;29;20116;-77
2021/09/26 11:31:09;;;;;;;7.60;2.40;;;22.30;99.90;;;;;;4908475;29;20037;-77
2021/09/26 11:33:55;;;;;;;4.03;2.50;;;22.40;99.90;;;;;;4899908;29;20108;-75
2021/09/26 11:36:23;;;;;;;5.63;2.83;;;22.50;99.90;;;;;;4899262;29;20063;-74
2021/09/26 11:38:49;;;;;;;5.45;2.55;;;22.70;99.90;;;;;;4901490;29;20084;-75
2021/09/26 11:41:37;;;;;;;7.38;3.05;;;22.70;99.90;;;;;;4898220;29;20068;-76
2021/09/26 11:44:09;;;;;;;4.35;2.50;;;22.70;99.90;;;;;;4903258;29;20393;-75
2021/09/26 11:46:35;;;;;;;7.38;3.63;;;22.50;99.90;;;;;;4891305;29;20076;-77
2021/09/26 11:49:06;;;;;;;4.28;2.78;;;22.30;99.90;;;;;;4885053;29;20123;-77
2021/09/26 11:51:38;;;;;;;6.93;3.10;;;22.20;99.90;;;;;;4902735;29;20091;-77
2021/09/26 11:54:05;;;;;;;7.47;2.97;;;22.10;99.90;;;;;;4897498;29;20116;-76
2021/09/26 11:56:35;;;;;;;4.95;2.63;;;22.00;99.90;;;;;;4897683;29;20033;-78
2021/09/26 11:59:09;;;;;;;5.78;3.30;;;21.90;99.90;;;;;;4901600;29;20170;-78
2021/09/26 12:01:38;;;;;;;4.18;2.88;;;21.70;99.90;;;;;;4892214;29;20056;-76
2021/09/26 12:04:21;;;;;;;5.53;2.80;;;21.60;99.90;;;;;;4897468;29;20033;-76
2021/09/26 12:06:51;;;;;;;5.20;2.63;;;21.50;99.90;;;;;;4896101;29;20136;-77
2021/09/26 12:09:35;;;;;;;8.57;2.55;;;21.50;99.90;;;;;;4880034;29;20068;-77
2021/09/26 12:12:05;;;;;;;7.07;3.15;;;21.50;99.90;;;;;;4899543;29;20033;-78
2021/09/26 12:14:31;;;;;;;5.45;2.75;;;21.50;99.90;;;;;;4883984;29;20040;-77
2021/09/26 12:17:02;;;;;;;4.03;2.58;;;21.60;99.90;;;;;;4881340;29;20033;-76
2021/09/26 12:19:29;;;;;;;4.72;3.03;;;21.70;99.90;;;;;;4897635;29;20080;-78
2021/09/26 12:22:27;;;;;;;9.90;3.67;;;21.90;99.90;;;;;;4891804;29;20037;-77
2021/09/26 12:24:59;;;;;;;6.40;3.40;;;22.20;99.90;;;;;;4908210;29;20051;-74
2021/09/26 12:27:35;;;;;;;7.13;3.20;;;22.60;99.90;;;;;;4909632;29;20068;-74
2021/09/26 12:30:17;;;;;;;8.75;2.60;;;22.50;99.90;;;;;;4907992;29;20028;-76
2021/09/26 12:33:03;;;;;;;7.13;3.28;;;22.30;99.90;;;;;;4893504;29;20056;-75
2021/09/26 12:35:31;;;;;;;6.00;3.28;;;22.20;99.90;;;;;;4874727;29;20116;-77
2021/09/26 12:38:03;;;;;;;6.95;3.33;;;22.10;99.90;;;;;;4882478;29;20035;-78
2021/09/26 12:40:33;;;;;;;4.63;2.63;;;22.00;99.90;;;;;;4897444;29;20029;-76
2021/09/26 12:43:00;;;;;;;6.13;3.40;;;22.00;99.90;;;;;;4890614;29;20056;-76
2021/09/26 12:45:25;;;;;;;4.88;2.53;;;22.20;99.90;;;;;;4890988;29;20033;-76
2021/09/26 12:47:53;;;;;;;3.95;2.75;;;22.20;99.90;;;;;;4877700;29;20059;-75
2021/09/26 12:50:30;;;;;;;5.72;3.20;;;22.20;99.90;;;;;;4892304;29;20049;-77
2021/09/26 12:53:00;;;;;;;8.38;3.30;;;22.30;99.90;;;;;;4899346;29;20040;-76
2021/09/26 12:55:30;;;;;;;7.00;3.65;;;22.20;99.90;;;;;;4880022;29;20466;-76